createdAt,value
2019-06-20T00:02:23.783Z,29.58
2019-06-20T00:04:56.289Z,29.56
2019-06-20T00:07:29.077Z,29.53
2019-06-20T00:10:01.505Z,29.51
2019-06-20T00:12:34.093Z,29.47
2019-06-20T00:15:06.747Z,29.44
2019-06-20T00:17:39.148Z,29.40
2019-06-20T00:20:11.725Z,29.36
2019-06-20T00:22:44.062Z,29.35
2019-06-20T00:25:16.631Z,29.30
2019-06-20T00:27:48.985Z,29.27
2019-06-20T00:30:21.642Z,29.23
2019-06-20T00:32:54.485Z,29.18
2019-06-20T00:35:27.151Z,29.14
2019-06-20T00:38:01.422Z,29.10
2019-06-20T00:40:34.643Z,29.06
2019-06-20T00:43:16.776Z,29.01
2019-06-20T00:45:41.465Z,28.97
2019-06-20T00:48:14.387Z,28.95
2019-06-20T00:50:46.864Z,28.93
2019-06-20T00:53:19.348Z,28.91
2019-06-20T00:55:51.951Z,28.89
2019-06-20T00:58:24.384Z,28.88
2019-06-20T01:00:57.084Z,28.85
2019-06-20T01:03:29.632Z,28.83
2019-06-20T01:06:01.936Z,28.80
2019-06-20T01:08:34.409Z,28.80
2019-06-20T01:11:06.641Z,28.79
2019-06-20T01:13:39.384Z,28.79
2019-06-20T01:16:11.802Z,28.77
2019-06-20T01:18:44.277Z,28.78
2019-06-20T01:21:18.087Z,28.79
2019-06-20T01:23:50.509Z,28.77
2019-06-20T01:26:23.096Z,28.79
2019-06-20T01:28:55.417Z,28.76
2019-06-20T01:31:27.763Z,28.74
2019-06-20T01:34:00.284Z,28.71
2019-06-20T01:36:33.207Z,28.71
2019-06-20T01:39:07.013Z,28.70
2019-06-20T01:41:39.325Z,28.68
2019-06-20T01:44:15.314Z,28.69
2019-06-20T01:46:47.765Z,28.68
2019-06-20T01:49:20.197Z,28.67
2019-06-20T01:51:52.572Z,28.65
2019-06-20T01:54:25.121Z,28.63
2019-06-20T01:56:57.476Z,28.61
2019-06-20T01:59:29.698Z,28.60
2019-06-20T02:02:02.054Z,28.57
2019-06-20T02:04:34.624Z,28.53
2019-06-20T02:07:07.495Z,28.52
2019-06-20T02:09:40.209Z,28.52
2019-06-20T02:12:12.541Z,28.52
2019-06-20T02:14:45.071Z,28.51
2019-06-20T02:17:17.640Z,28.49
2019-06-20T02:19:50.324Z,28.48
2019-06-20T02:22:23.054Z,28.46
2019-06-20T02:24:55.237Z,28.45
2019-06-20T02:27:27.864Z,28.43
2019-06-20T02:30:00.473Z,28.41
2019-06-20T02:32:33.152Z,28.42
2019-06-20T02:35:05.664Z,28.41
2019-06-20T02:37:38.590Z,28.40
2019-06-20T02:40:12.671Z,28.37
2019-06-20T02:42:45.175Z,28.35
2019-06-20T02:45:17.845Z,28.33
2019-06-20T02:47:50.129Z,28.31
2019-06-20T02:50:22.706Z,28.31
2019-06-20T02:52:55.511Z,28.30
2019-06-20T02:55:29.518Z,28.29
2019-06-20T02:58:03.421Z,28.28
2019-06-20T03:00:58.327Z,28.27
2019-06-20T03:03:31.360Z,28.28
2019-06-20T03:06:03.802Z,28.29
2019-06-20T03:08:36.241Z,28.30
2019-06-20T03:11:08.642Z,28.32
2019-06-20T03:13:41.323Z,28.32
2019-06-20T03:16:13.816Z,28.34
2019-06-20T03:18:48.387Z,28.36
2019-06-20T03:21:20.648Z,28.38
2019-06-20T03:23:53.156Z,28.41
2019-06-20T03:26:26.108Z,28.45
2019-06-20T03:28:58.455Z,28.48
2019-06-20T03:31:31.261Z,28.51
2019-06-20T03:34:03.621Z,28.55
2019-06-20T03:36:36.344Z,28.58
2019-06-20T03:39:10.226Z,28.63
2019-06-20T03:41:42.723Z,28.65
2019-06-20T03:44:15.055Z,28.68
2019-06-20T03:46:47.335Z,28.72
2019-06-20T03:49:19.757Z,28.75
2019-06-20T03:51:52.025Z,28.79
2019-06-20T03:54:24.978Z,28.82
2019-06-20T03:56:57.796Z,28.86
2019-06-20T03:59:30.421Z,28.92
2019-06-20T04:02:03.063Z,28.99
2019-06-20T04:04:35.383Z,29.07
2019-06-20T04:07:07.884Z,29.14
2019-06-20T04:09:40.168Z,29.18
2019-06-20T04:12:12.643Z,29.23
2019-06-20T04:14:44.972Z,29.30
2019-06-20T04:17:17.478Z,29.37
2019-06-20T04:19:49.683Z,29.46
2019-06-20T04:22:21.836Z,29.53
2019-06-20T04:24:54.079Z,29.60
2019-06-20T04:27:26.354Z,29.68
2019-06-20T04:29:58.668Z,29.74
2019-06-20T04:32:30.928Z,29.79
2019-06-20T04:35:03.206Z,29.84
2019-06-20T04:37:35.452Z,29.94
2019-06-20T04:40:09.667Z,30.09
2019-06-20T04:42:42.242Z,30.24
2019-06-20T04:45:35.532Z,30.38
2019-06-20T04:48:05.621Z,30.49
2019-06-20T04:50:38.421Z,30.59
2019-06-20T04:53:10.620Z,30.66
2019-06-20T04:55:42.943Z,30.72
2019-06-20T04:58:15.797Z,30.76
2019-06-20T05:00:56.043Z,30.80
2019-06-20T05:03:28.515Z,30.86
2019-06-20T05:06:00.761Z,30.95
2019-06-20T05:08:37.310Z,31.08
2019-06-20T05:11:09.631Z,31.22
2019-06-20T05:13:42.011Z,31.52
2019-06-20T05:16:14.421Z,32.02
2019-06-20T05:18:46.702Z,32.60
2019-06-20T05:21:22.548Z,33.21
2019-06-20T05:23:55.005Z,33.84
2019-06-20T05:26:27.617Z,34.44
2019-06-20T05:28:59.893Z,35.00
2019-06-20T05:31:32.137Z,35.51
2019-06-20T05:34:04.975Z,35.77
2019-06-20T05:36:37.338Z,35.81
2019-06-20T05:39:10.374Z,35.70
2019-06-20T05:41:42.632Z,35.69
2019-06-20T05:44:15.128Z,35.66
2019-06-20T05:46:47.360Z,35.64
2019-06-20T05:49:19.917Z,35.78
2019-06-20T05:51:52.263Z,35.97
2019-06-20T05:54:24.818Z,36.09
2019-06-20T05:56:57.255Z,36.11
2019-06-20T05:59:29.713Z,36.25
2019-06-20T06:02:01.951Z,36.34
2019-06-20T06:04:34.433Z,36.44
2019-06-20T06:07:06.711Z,36.52
2019-06-20T06:09:39.626Z,36.58
2019-06-20T06:12:12.697Z,36.48
2019-06-20T06:14:45.446Z,36.53
2019-06-20T06:17:17.862Z,36.76
2019-06-20T06:19:50.820Z,37.08
2019-06-20T06:22:23.397Z,37.32
2019-06-20T06:24:56.333Z,37.32
2019-06-20T06:27:29.037Z,37.17
2019-06-20T06:30:01.915Z,37.01
2019-06-20T06:32:40.172Z,36.83
2019-06-20T06:35:09.644Z,36.59
2019-06-20T06:37:41.905Z,36.56
2019-06-20T06:40:17.524Z,36.70
2019-06-20T06:42:51.859Z,36.98
2019-06-20T06:45:24.701Z,37.30
2019-06-20T06:47:57.113Z,37.43
2019-06-20T06:50:30.253Z,37.47
2019-06-20T06:53:02.912Z,37.66
2019-06-20T06:55:36.009Z,37.89
2019-06-20T06:58:08.877Z,38.09
2019-06-20T07:00:41.988Z,38.15
2019-06-20T07:03:14.516Z,38.15
2019-06-20T07:05:46.953Z,38.06
2019-06-20T07:08:19.248Z,38.07
2019-06-20T07:10:51.562Z,38.14
2019-06-20T07:13:23.878Z,38.24
2019-06-20T07:15:56.262Z,38.30
2019-06-20T07:18:28.531Z,38.32
2019-06-20T07:21:00.758Z,38.34
2019-06-20T07:23:33.088Z,38.31
2019-06-20T07:26:05.540Z,38.29
2019-06-20T07:28:38.066Z,38.30
2019-06-20T07:31:10.411Z,38.31
2019-06-20T07:33:42.741Z,38.35
2019-06-20T07:36:15.265Z,38.46
2019-06-20T07:38:47.600Z,38.56
2019-06-20T07:41:19.850Z,38.61
2019-06-20T07:43:52.119Z,38.71
2019-06-20T07:46:24.381Z,38.82
2019-06-20T07:48:56.998Z,38.93
2019-06-20T07:51:29.333Z,38.99
2019-06-20T07:54:01.677Z,39.05
2019-06-20T07:56:34.358Z,39.09
2019-06-20T07:59:06.784Z,39.10
2019-06-20T08:01:39.145Z,39.10
2019-06-20T08:04:11.702Z,39.11
2019-06-20T08:06:44.296Z,39.11
2019-06-20T08:09:16.691Z,38.92
2019-06-20T08:11:48.994Z,38.77
2019-06-20T08:14:21.299Z,38.68
2019-06-20T08:16:53.826Z,38.60
2019-06-20T08:19:26.174Z,38.57
2019-06-20T08:21:58.549Z,38.54
2019-06-20T08:24:30.930Z,38.50
2019-06-20T08:27:04.808Z,38.50
2019-06-20T08:29:37.206Z,38.52
2019-06-20T08:32:09.999Z,38.51
2019-06-20T08:34:42.355Z,38.43
2019-06-20T08:37:14.787Z,38.43
2019-06-20T08:39:47.416Z,38.48
2019-06-20T08:42:20.609Z,38.45
2019-06-20T08:44:56.212Z,38.40
2019-06-20T08:47:27.915Z,38.36
2019-06-20T08:50:01.412Z,38.35
2019-06-20T08:52:56.055Z,38.25
2019-06-20T08:55:29.020Z,38.08
2019-06-20T08:58:03.434Z,37.76
2019-06-20T09:00:37.800Z,37.50
2019-06-20T09:03:10.558Z,37.28
2019-06-20T09:05:43.146Z,37.07
2019-06-20T09:08:15.648Z,36.84
2019-06-20T09:10:48.167Z,36.64
2019-06-20T09:13:20.736Z,36.46
2019-06-20T09:15:54.747Z,36.31
2019-06-20T09:18:27.120Z,36.19
2019-06-20T09:21:00.302Z,36.11
2019-06-20T09:23:35.607Z,36.03
2019-06-20T09:26:06.580Z,35.94
2019-06-20T09:28:39.337Z,35.83
2019-06-20T09:31:11.548Z,35.76
2019-06-20T09:33:44.180Z,35.73
2019-06-20T09:36:16.434Z,35.72
2019-06-20T09:38:48.778Z,35.71
2019-06-20T09:41:21.795Z,35.71
2019-06-20T09:43:54.272Z,35.67
2019-06-20T09:46:26.580Z,35.59
2019-06-20T09:48:59.407Z,35.54
2019-06-20T09:51:31.975Z,35.56
2019-06-20T09:54:04.272Z,35.55
2019-06-20T09:56:36.584Z,35.52
2019-06-20T09:59:09.369Z,35.47
2019-06-20T10:01:41.777Z,35.41
2019-06-20T10:04:14.515Z,35.28
2019-06-20T10:06:47.417Z,35.16
2019-06-20T10:09:20.901Z,35.09
2019-06-20T10:11:54.114Z,35.12
2019-06-20T10:14:27.030Z,35.15
2019-06-20T10:16:59.338Z,35.15
2019-06-20T10:19:31.737Z,35.15
2019-06-20T10:22:04.274Z,35.20
2019-06-20T10:24:36.569Z,35.19
2019-06-20T10:27:09.136Z,35.21
2019-06-20T10:29:42.155Z,35.18
2019-06-20T10:32:15.735Z,35.17
2019-06-20T10:34:48.396Z,35.15
2019-06-20T10:37:20.719Z,35.16
2019-06-20T10:39:53.132Z,35.15
2019-06-20T10:42:27.831Z,35.17
2019-06-20T10:45:00.060Z,35.18
2019-06-20T10:47:36.043Z,35.18
2019-06-20T10:50:08.168Z,35.22
2019-06-20T10:52:41.170Z,35.22
2019-06-20T10:55:14.617Z,35.20
2019-06-20T10:57:47.066Z,35.20
2019-06-20T11:00:30.259Z,35.25
2019-06-20T11:02:54.899Z,35.23
2019-06-20T11:05:27.363Z,35.18
2019-06-20T11:08:00.718Z,35.17
2019-06-20T11:10:33.823Z,35.16
2019-06-20T11:13:06.256Z,35.12
2019-06-20T11:15:39.282Z,35.11
2019-06-20T11:18:12.804Z,35.13
2019-06-20T11:20:48.683Z,35.17
2019-06-20T11:23:21.305Z,35.11
2019-06-20T11:25:53.568Z,35.09
2019-06-20T11:28:25.855Z,35.09
2019-06-20T11:31:00.557Z,35.04
2019-06-20T11:33:32.183Z,34.99
2019-06-20T11:36:04.451Z,34.94
2019-06-20T11:38:36.666Z,34.91
2019-06-20T11:41:08.951Z,34.89
2019-06-20T11:43:42.231Z,34.86
2019-06-20T11:46:14.623Z,34.86
2019-06-20T11:48:47.111Z,34.89
2019-06-20T11:51:19.570Z,34.93
2019-06-20T11:53:51.871Z,34.94
2019-06-20T11:56:24.201Z,34.94
2019-06-20T11:58:56.422Z,34.94
2019-06-20T12:01:32.836Z,34.94
2019-06-20T12:04:02.678Z,34.96
2019-06-20T12:06:35.188Z,34.96
2019-06-20T12:09:09.991Z,34.96
2019-06-20T12:11:42.446Z,34.96
2019-06-20T12:14:14.932Z,34.97
2019-06-20T12:16:48.627Z,34.93
2019-06-20T12:19:21.376Z,34.88
2019-06-20T12:21:53.746Z,34.85
2019-06-20T12:24:26.222Z,34.79
2019-06-20T12:26:58.794Z,34.69
2019-06-20T12:29:31.004Z,34.69
2019-06-20T12:32:03.413Z,34.74
2019-06-20T12:34:35.643Z,34.77
2019-06-20T12:37:07.912Z,34.75
2019-06-20T12:39:40.366Z,34.75
2019-06-20T12:42:14.343Z,34.77
2019-06-20T12:44:48.055Z,34.79
2019-06-20T12:47:21.247Z,34.76
2019-06-20T12:49:53.653Z,34.73
2019-06-20T12:52:25.926Z,34.69
2019-06-20T12:54:58.270Z,34.60
2019-06-20T12:57:30.784Z,34.49
2019-06-20T13:00:05.509Z,34.40
2019-06-20T13:02:40.425Z,34.30
2019-06-20T13:05:13.857Z,34.26
2019-06-20T13:07:46.576Z,34.43
2019-06-20T13:10:20.002Z,34.30
2019-06-20T13:12:52.199Z,34.30
2019-06-20T13:15:24.466Z,34.32
2019-06-20T13:17:56.815Z,34.29
2019-06-20T13:20:29.167Z,34.29
2019-06-20T13:23:01.497Z,34.29
2019-06-20T13:25:33.699Z,34.33
2019-06-20T13:28:06.200Z,34.37
2019-06-20T13:30:40.286Z,34.41
2019-06-20T13:33:12.973Z,34.43
2019-06-20T13:35:45.614Z,34.37
2019-06-20T13:38:17.960Z,34.34
2019-06-20T13:40:50.360Z,34.28
2019-06-20T13:43:22.895Z,34.23
2019-06-20T13:45:55.196Z,34.15
2019-06-20T13:48:27.462Z,34.03
2019-06-20T13:51:00.132Z,33.95
2019-06-20T13:53:32.501Z,33.89
2019-06-20T13:56:05.054Z,33.79
2019-06-20T13:58:37.395Z,33.70
2019-06-20T14:01:09.924Z,33.65
2019-06-20T14:03:44.058Z,33.59
2019-06-20T14:06:16.583Z,33.55
2019-06-20T14:08:50.244Z,33.50
2019-06-20T14:11:22.725Z,33.47
2019-06-20T14:13:55.326Z,33.46
2019-06-20T14:16:27.501Z,33.39
2019-06-20T14:18:59.892Z,33.34
2019-06-20T14:21:32.090Z,33.27
2019-06-20T14:24:04.572Z,33.21
2019-06-20T14:26:37.185Z,33.17
2019-06-20T14:29:09.419Z,33.13
2019-06-20T14:31:42.624Z,33.10
2019-06-20T14:34:16.285Z,33.04
2019-06-20T14:36:50.507Z,32.99
2019-06-20T14:39:22.880Z,32.92
2019-06-20T14:41:56.400Z,32.86
2019-06-20T14:44:29.026Z,32.82
2019-06-20T14:47:03.295Z,32.79
2019-06-20T14:49:36.651Z,32.80
2019-06-20T14:52:09.395Z,32.78
2019-06-20T14:54:44.001Z,32.76
2019-06-20T14:57:16.166Z,32.72
2019-06-20T14:59:49.875Z,32.68
2019-06-20T15:02:34.622Z,32.65
2019-06-20T15:04:57.035Z,32.62
2019-06-20T15:07:29.500Z,32.62
2019-06-20T15:10:03.821Z,32.60
2019-06-20T15:12:36.300Z,32.61
2019-06-20T15:15:09.481Z,32.61
2019-06-20T15:17:42.261Z,32.59
2019-06-20T15:20:16.273Z,32.55
2019-06-20T15:22:49.370Z,32.54
2019-06-20T15:25:22.951Z,32.55
2019-06-20T15:27:57.030Z,32.54
2019-06-20T15:30:29.921Z,32.54
2019-06-20T15:33:09.933Z,32.55
2019-06-20T15:35:37.175Z,32.55
2019-06-20T15:38:09.715Z,32.51
2019-06-20T15:40:42.169Z,32.48
2019-06-20T15:43:14.549Z,32.46
2019-06-20T15:45:48.405Z,32.45
2019-06-20T15:48:21.154Z,32.42
2019-06-20T15:50:53.847Z,32.40
2019-06-20T15:53:26.316Z,32.38
2019-06-20T15:55:58.940Z,32.37
2019-06-20T15:58:31.488Z,32.33
2019-06-20T16:01:03.890Z,32.33
2019-06-20T16:03:36.348Z,32.30
2019-06-20T16:06:08.872Z,32.25
2019-06-20T16:08:41.443Z,32.23
2019-06-20T16:11:14.198Z,32.20
2019-06-20T16:13:49.406Z,32.15
2019-06-20T16:16:21.093Z,32.13
2019-06-20T16:18:53.694Z,32.10
2019-06-20T16:21:30.968Z,32.03
2019-06-20T16:24:03.594Z,31.96
2019-06-20T16:26:36.519Z,31.92
2019-06-20T16:29:09.157Z,31.87
2019-06-20T16:31:41.825Z,31.82
2019-06-20T16:34:14.256Z,31.77
2019-06-20T16:36:46.628Z,31.73
2019-06-20T16:39:18.894Z,31.68
2019-06-20T16:41:51.470Z,31.64
2019-06-20T16:44:24.971Z,31.59
2019-06-20T16:46:57.919Z,31.52
2019-06-20T16:49:30.561Z,31.46
2019-06-20T16:52:03.491Z,31.40
2019-06-20T16:54:36.079Z,31.36
2019-06-20T16:57:08.880Z,31.30
2019-06-20T16:59:41.128Z,31.26
2019-06-20T17:02:13.392Z,31.22
2019-06-20T17:04:46.139Z,31.20
2019-06-20T17:07:18.492Z,31.18
2019-06-20T17:09:50.916Z,31.15
2019-06-20T17:12:23.245Z,31.12
2019-06-20T17:14:55.546Z,31.07
2019-06-20T17:17:28.744Z,31.02
2019-06-20T17:20:01.026Z,30.97
2019-06-20T17:22:33.739Z,30.95
2019-06-20T17:25:07.061Z,30.95
2019-06-20T17:27:39.552Z,30.96
2019-06-20T17:30:13.933Z,30.95
2019-06-20T17:32:46.287Z,30.95
2019-06-20T17:35:19.294Z,30.93
2019-06-20T17:37:51.727Z,30.92
2019-06-20T17:40:24.884Z,30.91
2019-06-20T17:42:57.155Z,30.92
2019-06-20T17:45:30.071Z,30.92
2019-06-20T17:48:02.711Z,30.90
2019-06-20T17:50:36.020Z,30.88
2019-06-20T17:53:08.434Z,30.87
2019-06-20T17:55:41.005Z,30.85
2019-06-20T17:58:13.509Z,30.82
2019-06-20T18:00:45.999Z,30.81
2019-06-20T18:03:18.305Z,30.79
2019-06-20T18:05:50.967Z,30.78
2019-06-20T18:08:23.473Z,30.77
2019-06-20T18:10:55.807Z,30.77
2019-06-20T18:13:28.510Z,30.77
2019-06-20T18:16:00.873Z,30.76
2019-06-20T18:18:33.369Z,30.75
2019-06-20T18:21:07.008Z,30.74
2019-06-20T18:23:39.594Z,30.71
2019-06-20T18:26:11.906Z,30.70
2019-06-20T18:28:44.238Z,30.68
2019-06-20T18:31:16.853Z,30.67
2019-06-20T18:33:49.447Z,30.65
2019-06-20T18:36:21.987Z,30.60
2019-06-20T18:38:54.356Z,30.56
2019-06-20T18:41:26.764Z,30.53
2019-06-20T18:43:58.938Z,30.50
2019-06-20T18:46:31.375Z,30.48
2019-06-20T18:49:03.700Z,30.46
2019-06-20T18:51:40.275Z,30.44
2019-06-20T18:54:12.568Z,30.43
2019-06-20T18:56:45.115Z,30.41
2019-06-20T18:59:17.381Z,30.42
2019-06-20T19:01:50.008Z,30.44
2019-06-20T19:04:22.253Z,30.46
2019-06-20T19:06:54.642Z,30.45
2019-06-20T19:09:26.814Z,30.45
2019-06-20T19:12:01.188Z,30.43
2019-06-20T19:14:34.092Z,30.43
2019-06-20T19:17:06.679Z,30.42
2019-06-20T19:19:39.392Z,30.42
2019-06-20T19:22:11.958Z,30.43
2019-06-20T19:24:44.372Z,30.42
2019-06-20T19:27:16.783Z,30.43
2019-06-20T19:29:49.852Z,30.42
2019-06-20T19:32:22.439Z,30.40
2019-06-20T19:35:02.212Z,30.41
2019-06-20T19:37:29.196Z,30.40
2019-06-20T19:40:01.979Z,30.43
2019-06-20T19:42:34.324Z,30.42
2019-06-20T19:45:07.645Z,30.43
2019-06-20T19:47:40.102Z,30.42
2019-06-20T19:50:13.153Z,30.41
2019-06-20T19:52:45.459Z,30.38
2019-06-20T19:55:18.638Z,30.36
2019-06-20T19:57:51.002Z,30.34
2019-06-20T20:00:23.818Z,30.34
2019-06-20T20:02:56.617Z,30.31
2019-06-20T20:05:29.694Z,30.29
2019-06-20T20:08:02.452Z,30.28
2019-06-20T20:10:50.782Z,30.27
2019-06-20T20:13:23.018Z,30.27
2019-06-20T20:15:55.462Z,30.27
2019-06-20T20:18:27.687Z,30.27
2019-06-20T20:21:00.002Z,30.27
2019-06-20T20:23:32.290Z,30.27
2019-06-20T20:26:07.743Z,30.24
2019-06-20T20:28:40.534Z,30.21
2019-06-20T20:31:13.002Z,30.18
2019-06-20T20:33:46.913Z,30.16
2019-06-20T20:36:24.757Z,30.14
2019-06-20T20:38:55.121Z,30.13
2019-06-20T20:41:27.821Z,30.11
2019-06-20T20:44:00.250Z,30.09
2019-06-20T20:46:32.425Z,30.08
2019-06-20T20:49:04.610Z,30.07
2019-06-20T20:51:37.025Z,30.06
2019-06-20T20:54:09.443Z,30.05
2019-06-20T20:56:41.639Z,30.03
2019-06-20T20:59:13.880Z,30.01
2019-06-20T21:01:46.163Z,29.99
2019-06-20T21:04:18.528Z,29.97
2019-06-20T21:06:50.939Z,29.98
2019-06-20T21:09:23.170Z,29.98
2019-06-20T21:11:55.991Z,29.98
2019-06-20T21:14:28.638Z,29.99
2019-06-20T21:17:01.175Z,30.00
2019-06-20T21:19:33.350Z,30.01
2019-06-20T21:22:06.331Z,30.00
2019-06-20T21:24:38.734Z,30.00
2019-06-20T21:27:11.179Z,30.01
2019-06-20T21:29:43.667Z,30.01
2019-06-20T21:32:16.252Z,30.00
2019-06-20T21:34:48.518Z,30.00
2019-06-20T21:37:22.245Z,30.00
2019-06-20T21:39:54.730Z,30.00
2019-06-20T21:42:27.017Z,29.99
2019-06-20T21:44:59.337Z,29.97
2019-06-20T21:47:31.782Z,29.95
2019-06-20T21:50:04.188Z,29.92
2019-06-20T21:52:36.460Z,29.91
2019-06-20T21:55:10.418Z,29.89
2019-06-20T21:57:42.760Z,29.86
2019-06-20T22:00:23.853Z,29.83
2019-06-20T22:02:56.442Z,29.80
2019-06-20T22:05:28.719Z,29.77
2019-06-20T22:08:00.965Z,29.78
2019-06-20T22:10:33.459Z,29.78
2019-06-20T22:13:06.308Z,29.79
2019-06-20T22:15:39.083Z,29.80
2019-06-20T22:18:11.592Z,29.81
2019-06-20T22:20:43.984Z,29.80
2019-06-20T22:23:16.300Z,29.78
2019-06-20T22:25:51.923Z,29.77
2019-06-20T22:28:24.758Z,29.76
2019-06-20T22:30:57.963Z,29.76
2019-06-20T22:33:30.089Z,29.76
2019-06-20T22:36:02.483Z,29.77
2019-06-20T22:38:35.039Z,29.79
2019-06-20T22:41:08.101Z,29.79
2019-06-20T22:43:40.465Z,29.79
2019-06-20T22:46:12.833Z,29.80
2019-06-20T22:48:45.391Z,29.82
2019-06-20T22:51:17.587Z,29.82
2019-06-20T22:53:49.847Z,29.83
2019-06-20T22:56:22.326Z,29.82
2019-06-20T22:58:54.865Z,29.82
2019-06-20T23:01:27.102Z,29.79
2019-06-20T23:03:59.532Z,29.77
2019-06-20T23:06:31.950Z,29.75
2019-06-20T23:09:05.366Z,29.76
2019-06-20T23:11:38.044Z,29.75
2019-06-20T23:14:10.256Z,29.75
2019-06-20T23:16:42.854Z,29.75
2019-06-20T23:19:15.322Z,29.75
2019-06-20T23:21:48.803Z,29.76
2019-06-20T23:24:21.235Z,29.77
2019-06-20T23:26:53.568Z,29.76
2019-06-20T23:29:26.197Z,29.77
2019-06-20T23:31:58.824Z,29.75
2019-06-20T23:34:31.305Z,29.73
2019-06-20T23:37:12.649Z,29.71
2019-06-20T23:39:38.077Z,29.70
2019-06-20T23:42:10.534Z,29.70
2019-06-20T23:44:42.766Z,29.70
2019-06-20T23:47:15.346Z,29.71
2019-06-20T23:49:47.688Z,29.71
2019-06-20T23:52:22.603Z,29.73
2019-06-20T23:54:54.853Z,29.72
2019-06-20T23:57:27.125Z,29.73
2019-06-20T23:59:59.752Z,29.73
